KQND

Camp Nothing Hil

Camp Nothing Hil,
METAR KQND 181956Z AUTO 00000KT 9999 CLR 23/M05 A2998 RMK AO2 SLP148 WND DATA ESTMD T02311052
Observed Flight Rules
Jan-18 @ 19:56 UTC (37 minutes ago) Visual Flight Rules
Visibility Clouds
10,000+ meters
  • Clear skies
Temperatures Readings
Current 23°C / 73°F
Dewpoint -5°C / 23°F
Humidity 15%
Altimeter 29.98" Hg
Pressure 1014.8 hPa
METAR KQND 181956Z AUTO 00000KT 9999 CLR 23/M05 A2998 RMK AO2 SLP148 WND DATA ESTMD T02311052
Observed Flight Rules
Jan-18 @ 19:56 UTC
(37 minutes ago)
VFR
Clouds
  • Clear skies
Temperature Dewpoint
23°C / 73°F -5°C / 23°F
Humidity Altimeter Pressure
15% 29.98" Hg 1014.8 hPa